createdAt,value
2023-01-17T00:02:02.261Z,3.37
2023-01-17T00:05:23.019Z,3.70
2023-01-17T00:08:43.403Z,4.47
2023-01-17T00:11:45.028Z,3.67
2023-01-17T00:14:47.075Z,3.73
2023-01-17T00:17:49.327Z,3.93
2023-01-17T00:21:09.635Z,3.97
2023-01-17T00:24:29.992Z,3.70
2023-01-17T00:27:31.504Z,4.30
2023-01-17T00:30:33.464Z,4.97
2023-01-17T00:33:35.346Z,4.00
2023-01-17T00:36:36.935Z,4.63
2023-01-17T00:39:38.545Z,3.20
2023-01-17T00:42:40.115Z,4.17
2023-01-17T00:46:01.463Z,6.67
2023-01-17T00:49:21.580Z,5.97
2023-01-17T00:52:41.876Z,5.73
2023-01-17T00:56:02.368Z,6.23
2023-01-17T00:59:22.639Z,4.70
2023-01-17T01:02:43.433Z,4.70
2023-01-17T01:06:03.657Z,4.37
2023-01-17T01:09:23.910Z,4.70
2023-01-17T01:12:44.189Z,4.03
2023-01-17T01:16:04.595Z,3.43
2023-01-17T01:19:24.875Z,5.10
2023-01-17T01:22:44.978Z,3.43
2023-01-17T01:26:05.278Z,4.43
2023-01-17T01:29:25.545Z,6.80
2023-01-17T01:32:45.935Z,4.70
2023-01-17T01:35:49.474Z,4.53
2023-01-17T01:38:51.174Z,4.40
2023-01-17T01:41:52.897Z,4.47
2023-01-17T01:44:55.234Z,4.90
2023-01-17T01:47:59.639Z,5.20
2023-01-17T01:51:03.673Z,4.23
2023-01-17T01:54:08.242Z,4.10
2023-01-17T01:57:11.093Z,5.20
2023-01-17T02:00:14.635Z,4.63
2023-01-17T02:03:19.405Z,5.03
2023-01-17T02:06:25.933Z,4.87
2023-01-17T02:09:27.800Z,4.27
2023-01-17T02:12:29.609Z,5.03
2023-01-17T02:15:42.118Z,4.20
2023-01-17T02:18:52.907Z,3.13
2023-01-17T02:22:06.791Z,4.47
2023-01-17T02:25:27.161Z,4.30
2023-01-17T02:28:28.774Z,3.07
2023-01-17T02:31:56.910Z,4.83
2023-01-17T02:35:17.306Z,3.80
2023-01-17T02:38:21.892Z,4.30
2023-01-17T02:41:27.981Z,4.77
2023-01-17T02:44:29.647Z,5.00
2023-01-17T02:47:31.977Z,4.43
2023-01-17T02:50:39.947Z,4.43
2023-01-17T02:53:56.932Z,3.87
2023-01-17T02:57:04.312Z,5.30
2023-01-17T03:00:18.187Z,5.73
2023-01-17T03:03:29.081Z,5.50
2023-01-17T03:06:36.575Z,4.30
2023-01-17T03:09:38.764Z,4.37
2023-01-17T03:12:40.827Z,2.67
2023-01-17T03:15:42.875Z,3.80
2023-01-17T03:18:44.784Z,5.00
2023-01-17T03:21:46.480Z,5.30
2023-01-17T03:24:48.276Z,3.87
2023-01-17T03:27:49.886Z,5.27
2023-01-17T03:30:51.572Z,5.20
2023-01-17T03:33:53.388Z,3.97
2023-01-17T03:36:55.021Z,3.57
2023-01-17T03:39:56.610Z,4.23
2023-01-17T03:42:58.253Z,4.20
2023-01-17T03:46:03.889Z,4.20
2023-01-17T03:49:05.524Z,3.17
2023-01-17T03:52:07.380Z,5.40
2023-01-17T03:55:09.185Z,5.40
2023-01-17T03:58:10.805Z,5.30
2023-01-17T04:01:12.664Z,5.60
2023-01-17T04:04:15.182Z,4.83
2023-01-17T04:07:17.014Z,4.17
2023-01-17T04:10:18.693Z,6.33
2023-01-17T04:13:20.404Z,6.70
2023-01-17T04:16:24.580Z,6.67
2023-01-17T04:19:26.237Z,6.43
2023-01-17T04:22:27.813Z,6.50
2023-01-17T04:25:30.959Z,6.10
2023-01-17T04:28:32.669Z,5.63
2023-01-17T04:31:34.446Z,6.90
2023-01-17T04:34:36.080Z,7.57
2023-01-17T04:37:37.726Z,7.27
2023-01-17T04:40:39.285Z,7.50
2023-01-17T04:43:40.893Z,7.30
2023-01-17T04:46:42.596Z,6.40
2023-01-17T04:49:44.320Z,7.03
2023-01-17T04:52:45.965Z,5.80
2023-01-17T04:55:47.574Z,7.40
2023-01-17T04:58:49.259Z,7.30
2023-01-17T05:01:50.900Z,5.93
2023-01-17T05:04:52.639Z,5.37
2023-01-17T05:07:54.933Z,5.40
2023-01-17T05:10:56.499Z,4.63
2023-01-17T05:13:58.121Z,5.30
2023-01-17T05:16:59.815Z,7.27
2023-01-17T05:20:01.568Z,5.53
2023-01-17T05:23:03.301Z,6.93
2023-01-17T05:26:05.039Z,5.70
2023-01-17T05:29:07.780Z,6.00
2023-01-17T05:32:09.588Z,5.43
2023-01-17T05:35:11.335Z,5.17
2023-01-17T05:38:13.033Z,5.70
2023-01-17T05:41:14.851Z,5.90
2023-01-17T05:44:16.519Z,5.57
2023-01-17T05:47:18.105Z,6.60
2023-01-17T05:50:21.379Z,6.60
2023-01-17T05:53:23.283Z,6.67
2023-01-17T05:56:24.929Z,6.40
2023-01-17T05:59:36.624Z,6.67
2023-01-17T06:02:38.839Z,5.43
2023-01-17T06:05:40.615Z,6.70
2023-01-17T06:08:42.356Z,7.00
2023-01-17T06:11:43.978Z,4.70
2023-01-17T06:14:45.721Z,7.13
2023-01-17T06:17:47.301Z,6.10
2023-01-17T06:20:52.519Z,5.47
2023-01-17T06:23:54.897Z,5.67
2023-01-17T06:26:56.955Z,8.00
2023-01-17T06:29:58.603Z,8.07
2023-01-17T06:33:00.338Z,7.87
2023-01-17T06:36:02.140Z,7.53
2023-01-17T06:39:04.328Z,13.87
2023-01-17T06:42:06.137Z,14.40
2023-01-17T06:45:08.072Z,8.93
2023-01-17T06:48:09.705Z,7.63
2023-01-17T06:51:11.799Z,9.00
2023-01-17T06:54:13.868Z,8.43
2023-01-17T06:57:15.453Z,8.93
2023-01-17T07:00:17.323Z,7.83
2023-01-17T07:03:19.145Z,10.77
2023-01-17T07:06:21.312Z,10.07
2023-01-17T07:09:23.087Z,8.13
2023-01-17T07:12:24.845Z,10.37
2023-01-17T07:15:26.595Z,8.70
2023-01-17T07:18:28.892Z,8.30
2023-01-17T07:21:30.477Z,7.53
2023-01-17T07:24:33.050Z,7.87
2023-01-17T07:27:34.836Z,8.30
2023-01-17T07:30:36.932Z,7.77
2023-01-17T07:33:44.577Z,7.33
2023-01-17T07:36:48.615Z,7.17
2023-01-17T07:39:53.835Z,8.27
2023-01-17T07:43:02.130Z,8.03
2023-01-17T07:46:05.434Z,8.17
2023-01-17T07:49:07.164Z,6.60
2023-01-17T07:52:09.231Z,6.80
2023-01-17T07:55:10.936Z,6.90
2023-01-17T07:58:12.977Z,9.23
2023-01-17T08:01:15.890Z,8.07
2023-01-17T08:04:17.683Z,8.53
2023-01-17T08:07:19.340Z,8.03
2023-01-17T08:10:21.361Z,7.43
2023-01-17T08:13:23.259Z,6.73
2023-01-17T08:16:25.566Z,6.13
2023-01-17T08:19:27.485Z,8.37
2023-01-17T08:22:30.532Z,8.63
2023-01-17T08:25:34.128Z,7.57
2023-01-17T08:28:35.791Z,9.30
2023-01-17T08:31:37.451Z,8.30
2023-01-17T08:34:39.159Z,9.53
2023-01-17T08:37:40.832Z,8.10
2023-01-17T08:40:43.222Z,8.97
2023-01-17T08:43:47.125Z,7.07
2023-01-17T08:46:49.214Z,7.63
2023-01-17T08:49:52.021Z,7.70
2023-01-17T08:53:00.141Z,7.67
2023-01-17T08:56:03.437Z,7.77
2023-01-17T08:59:05.216Z,6.07
2023-01-17T09:02:14.958Z,7.47
2023-01-17T09:05:16.630Z,6.27
2023-01-17T09:08:18.578Z,5.97
2023-01-17T09:11:20.220Z,6.03
2023-01-17T09:14:22.067Z,5.70
2023-01-17T09:17:23.878Z,6.43
2023-01-17T09:20:30.149Z,5.87
2023-01-17T09:23:32.073Z,6.27
2023-01-17T09:26:34.097Z,5.80
2023-01-17T09:29:35.731Z,5.93
2023-01-17T09:32:39.672Z,6.40
2023-01-17T09:35:41.329Z,5.87
2023-01-17T09:38:42.975Z,6.53
2023-01-17T09:42:03.020Z,5.13
2023-01-17T09:45:05.116Z,6.03
2023-01-17T09:48:09.229Z,5.53
2023-01-17T09:51:16.046Z,4.63
2023-01-17T09:54:22.249Z,3.47
2023-01-17T09:57:29.965Z,5.10
2023-01-17T10:00:41.496Z,6.90
2023-01-17T10:04:01.601Z,5.20
2023-01-17T10:07:09.704Z,3.50
2023-01-17T10:10:11.381Z,3.40
2023-01-17T10:13:28.891Z,4.00
2023-01-17T10:16:59.729Z,4.63
2023-01-17T10:20:01.773Z,5.97
2023-01-17T10:23:22.332Z,4.70
2023-01-17T10:26:27.169Z,4.83
2023-01-17T10:29:33.055Z,4.73
2023-01-17T10:32:34.994Z,4.20
2023-01-17T10:35:38.173Z,5.40
2023-01-17T10:38:42.121Z,5.30
2023-01-17T10:41:45.168Z,4.73
2023-01-17T10:44:50.582Z,5.40
2023-01-17T10:47:56.111Z,4.93
2023-01-17T10:51:14.950Z,5.10
2023-01-17T10:54:28.592Z,6.00
2023-01-17T10:57:33.146Z,6.47
2023-01-17T11:00:40.110Z,4.93
2023-01-17T11:03:44.245Z,5.37
2023-01-17T11:06:57.858Z,4.73
2023-01-17T11:10:00.035Z,4.40
2023-01-17T11:13:02.585Z,5.10
2023-01-17T11:16:06.700Z,4.30
2023-01-17T11:19:15.227Z,4.57
2023-01-17T11:22:17.778Z,3.57
2023-01-17T11:25:22.368Z,3.97
2023-01-17T11:28:30.504Z,4.03
2023-01-17T11:31:32.464Z,4.37
2023-01-17T11:34:34.368Z,3.27
2023-01-17T11:37:36.602Z,3.33
2023-01-17T11:40:42.247Z,4.00
2023-01-17T11:43:55.222Z,3.90
2023-01-17T11:47:14.424Z,3.73
2023-01-17T11:50:25.856Z,4.40
2023-01-17T11:53:36.745Z,3.80
2023-01-17T11:56:43.226Z,3.80
2023-01-17T11:59:45.182Z,5.97
2023-01-17T12:02:49.784Z,3.67
2023-01-17T12:06:14.873Z,3.40
2023-01-17T12:09:38.003Z,4.60
2023-01-17T12:12:58.829Z,5.17
2023-01-17T12:16:22.660Z,4.00
2023-01-17T12:19:33.715Z,3.87
2023-01-17T12:22:53.784Z,3.97
2023-01-17T12:26:01.510Z,4.20
2023-01-17T12:29:03.219Z,3.87
2023-01-17T12:32:04.799Z,3.20
2023-01-17T12:35:18.564Z,3.80
2023-01-17T12:38:32.213Z,3.80
2023-01-17T12:41:37.640Z,3.53
2023-01-17T12:44:51.777Z,3.53
2023-01-17T12:47:58.562Z,4.23
2023-01-17T12:51:06.253Z,4.17
2023-01-17T12:54:24.405Z,3.97
2023-01-17T12:57:33.717Z,4.00
2023-01-17T13:00:37.884Z,4.23
2023-01-17T13:03:42.607Z,4.60
2023-01-17T13:06:59.987Z,3.90
2023-01-17T13:10:07.750Z,4.37
2023-01-17T13:13:22.173Z,4.77
2023-01-17T13:16:35.517Z,3.60
2023-01-17T13:19:37.133Z,5.63
2023-01-17T13:22:39.890Z,5.87
2023-01-17T13:25:46.030Z,5.03
2023-01-17T13:28:50.577Z,5.17
2023-01-17T13:31:58.978Z,4.47
2023-01-17T13:35:01.745Z,4.60
2023-01-17T13:38:30.474Z,5.10
2023-01-17T13:41:35.146Z,6.07
2023-01-17T13:44:37.459Z,3.13
2023-01-17T13:47:40.567Z,3.60
2023-01-17T13:50:46.619Z,4.90
2023-01-17T13:53:48.264Z,4.30
2023-01-17T13:56:50.306Z,4.73
2023-01-17T13:59:59.063Z,3.60
2023-01-17T14:03:00.658Z,4.00
2023-01-17T14:06:02.254Z,4.10
2023-01-17T14:09:12.987Z,4.23
2023-01-17T14:12:21.281Z,4.27
2023-01-17T14:15:29.863Z,4.43
2023-01-17T14:18:41.915Z,4.63
2023-01-17T14:21:43.609Z,5.70
2023-01-17T14:25:00.475Z,4.90
2023-01-17T14:28:03.334Z,3.90
2023-01-17T14:31:09.207Z,5.40
2023-01-17T14:34:14.175Z,7.30
2023-01-17T14:37:15.874Z,6.20
2023-01-17T14:40:30.574Z,4.57
2023-01-17T14:43:33.274Z,8.53
2023-01-17T14:46:34.958Z,6.10
2023-01-17T14:49:38.888Z,6.40
2023-01-17T14:52:40.474Z,8.33
2023-01-17T14:55:48.288Z,8.90
2023-01-17T14:59:03.971Z,6.53
2023-01-17T15:02:11.436Z,8.40
2023-01-17T15:05:17.528Z,11.47
2023-01-17T15:08:20.577Z,10.30
2023-01-17T15:11:26.597Z,8.40
2023-01-17T15:14:34.389Z,6.23
2023-01-17T15:17:36.126Z,4.87
2023-01-17T15:20:38.117Z,6.33
2023-01-17T15:23:43.472Z,6.40
2023-01-17T15:26:45.314Z,5.60
2023-01-17T15:29:47.166Z,7.27
2023-01-17T15:32:49.391Z,7.93
2023-01-17T15:35:58.523Z,7.13
2023-01-17T15:39:02.187Z,9.00
2023-01-17T15:42:06.420Z,8.57
2023-01-17T15:45:12.135Z,8.53
2023-01-17T15:48:33.502Z,7.47
2023-01-17T15:51:39.013Z,5.20
2023-01-17T15:54:40.680Z,6.63
2023-01-17T15:57:48.303Z,5.13
2023-01-17T16:00:50.209Z,6.60
2023-01-17T16:03:54.077Z,4.03
2023-01-17T16:07:08.626Z,6.23
2023-01-17T16:10:17.683Z,5.73
2023-01-17T16:13:19.974Z,4.17
2023-01-17T16:16:25.885Z,5.47
2023-01-17T16:19:27.603Z,4.70
2023-01-17T16:22:29.245Z,4.80
2023-01-17T16:25:32.872Z,5.53
2023-01-17T16:28:34.765Z,4.33
2023-01-17T16:31:36.908Z,5.10
2023-01-17T16:34:38.559Z,6.43
2023-01-17T16:37:40.216Z,3.23
2023-01-17T16:40:46.300Z,4.23
2023-01-17T16:43:56.349Z,4.53
2023-01-17T16:46:59.705Z,3.93
2023-01-17T16:50:01.500Z,3.27
2023-01-17T16:53:03.227Z,4.80
2023-01-17T16:56:13.690Z,4.10
2023-01-17T16:59:15.517Z,4.50
2023-01-17T17:02:18.673Z,4.70
2023-01-17T17:05:20.672Z,5.27
2023-01-17T17:08:23.182Z,4.13
2023-01-17T17:11:25.039Z,4.77
2023-01-17T17:14:26.803Z,3.77
2023-01-17T17:17:29.148Z,5.00
2023-01-17T17:20:30.933Z,5.80
2023-01-17T17:23:32.664Z,6.30
2023-01-17T17:26:35.518Z,8.03
2023-01-17T17:29:37.242Z,6.10
2023-01-17T17:32:38.938Z,6.53
2023-01-17T17:35:40.555Z,4.03
2023-01-17T17:38:50.747Z,4.13
2023-01-17T17:41:52.597Z,4.03
2023-01-17T17:44:54.330Z,3.83
2023-01-17T17:47:55.999Z,3.83
2023-01-17T17:50:59.747Z,3.90
2023-01-17T17:54:03.310Z,4.10
2023-01-17T17:57:05.025Z,4.10
2023-01-17T18:00:06.998Z,4.03
2023-01-17T18:03:08.553Z,5.73
2023-01-17T18:06:11.282Z,5.40
2023-01-17T18:09:13.020Z,3.50
2023-01-17T18:12:14.684Z,3.63
2023-01-17T18:15:16.375Z,3.77
2023-01-17T18:18:17.959Z,3.63
2023-01-17T18:21:25.094Z,3.77
2023-01-17T18:24:26.838Z,3.37
2023-01-17T18:27:28.467Z,6.00
2023-01-17T18:30:34.921Z,4.20
2023-01-17T18:33:38.618Z,2.80
2023-01-17T18:36:40.288Z,2.87
2023-01-17T18:39:42.984Z,3.50
2023-01-17T18:42:44.560Z,5.83
2023-01-17T18:45:52.775Z,4.27
2023-01-17T18:48:57.526Z,3.80
2023-01-17T18:51:59.351Z,3.70
2023-01-17T18:55:01.078Z,4.53
2023-01-17T18:58:02.752Z,3.97
2023-01-17T19:01:15.262Z,4.13
2023-01-17T19:04:17.462Z,3.13
2023-01-17T19:07:21.231Z,2.70
2023-01-17T19:10:22.886Z,2.93
2023-01-17T19:13:24.718Z,2.50
2023-01-17T19:16:30.598Z,2.70
2023-01-17T19:19:32.247Z,3.67
2023-01-17T19:22:33.908Z,4.10
2023-01-17T19:25:36.209Z,3.80
2023-01-17T19:28:42.109Z,4.50
2023-01-17T19:31:44.028Z,2.63
2023-01-17T19:34:45.692Z,4.30
2023-01-17T19:37:47.955Z,2.83
2023-01-17T19:40:49.533Z,3.30
2023-01-17T19:43:55.321Z,3.00
2023-01-17T19:46:56.932Z,3.73
2023-01-17T19:49:58.639Z,2.60
2023-01-17T19:53:01.381Z,2.93
2023-01-17T19:56:14.638Z,2.40
2023-01-17T19:59:16.708Z,2.50
2023-01-17T20:02:19.020Z,2.70
2023-01-17T20:05:21.137Z,2.60
2023-01-17T20:08:22.811Z,5.47
2023-01-17T20:11:25.079Z,3.00
2023-01-17T20:14:26.886Z,2.97
2023-01-17T20:17:28.490Z,2.67
2023-01-17T20:20:32.502Z,2.40
2023-01-17T20:23:35.438Z,2.40
2023-01-17T20:26:37.127Z,2.30
2023-01-17T20:29:40.701Z,2.40
2023-01-17T20:32:42.388Z,2.20
2023-01-17T20:35:43.964Z,3.23
2023-01-17T20:38:46.318Z,2.60
2023-01-17T20:41:49.815Z,2.93
2023-01-17T20:44:51.658Z,2.90
2023-01-17T20:47:53.267Z,3.00
2023-01-17T20:50:54.890Z,2.50
2023-01-17T20:53:57.536Z,2.20
2023-01-17T20:56:59.112Z,2.10
2023-01-17T21:00:00.825Z,2.37
2023-01-17T21:03:03.116Z,2.30
2023-01-17T21:06:08.932Z,2.00
2023-01-17T21:09:15.029Z,2.77
2023-01-17T21:12:17.015Z,2.37
2023-01-17T21:15:18.671Z,2.03
2023-01-17T21:18:21.424Z,2.37
2023-01-17T21:21:25.304Z,2.20
2023-01-17T21:24:29.375Z,3.53
2023-01-17T21:27:30.987Z,3.33
2023-01-17T21:30:33.121Z,2.33
2023-01-17T21:33:34.898Z,2.97
2023-01-17T21:36:38.138Z,3.60
2023-01-17T21:39:39.879Z,3.60
2023-01-17T21:42:41.525Z,3.33
2023-01-17T21:45:43.138Z,3.00
2023-01-17T21:48:44.754Z,3.57
2023-01-17T21:51:55.481Z,3.40
2023-01-17T21:55:15.785Z,2.87
2023-01-17T21:58:36.083Z,2.60
2023-01-17T22:01:37.730Z,3.17
2023-01-17T22:04:39.617Z,3.53
2023-01-17T22:08:01.189Z,1.80
2023-01-17T22:11:03.870Z,1.90
2023-01-17T22:14:05.511Z,3.83
2023-01-17T22:17:07.144Z,2.60
2023-01-17T22:20:11.587Z,2.30
2023-01-17T22:23:13.157Z,2.80
2023-01-17T22:26:15.001Z,2.10
2023-01-17T22:29:18.829Z,1.80
2023-01-17T22:32:20.413Z,2.50
2023-01-17T22:35:22.996Z,2.20
2023-01-17T22:38:24.633Z,2.10
2023-01-17T22:41:29.811Z,2.80
2023-01-17T22:44:31.731Z,3.07
2023-01-17T22:47:34.108Z,2.20
2023-01-17T22:50:35.718Z,2.43
2023-01-17T22:53:44.807Z,2.90
2023-01-17T22:56:46.427Z,1.90
2023-01-17T22:59:48.029Z,2.47
2023-01-17T23:02:49.678Z,2.40
2023-01-17T23:05:51.285Z,1.43
2023-01-17T23:08:54.162Z,2.20
2023-01-17T23:11:56.349Z,2.17
2023-01-17T23:15:16.716Z,2.10
2023-01-17T23:18:36.841Z,1.73
2023-01-17T23:21:57.105Z,2.20
2023-01-17T23:25:06.429Z,1.93
2023-01-17T23:28:10.927Z,2.07
2023-01-17T23:31:12.606Z,2.97
2023-01-17T23:34:14.228Z,3.00
2023-01-17T23:37:15.832Z,2.97
2023-01-17T23:40:17.858Z,2.20
2023-01-17T23:43:25.535Z,1.83
2023-01-17T23:46:27.301Z,2.70
2023-01-17T23:49:31.282Z,2.10
2023-01-17T23:52:32.968Z,2.00
2023-01-17T23:55:35.388Z,2.30
2023-01-17T23:58:37.029Z,2.23
